createdAt,value
2023-11-18T00:01:36.512Z,13.65
2023-11-18T00:04:03.671Z,12.80
2023-11-18T00:06:30.610Z,14.15
2023-11-18T00:08:57.516Z,16.27
2023-11-18T00:11:25.618Z,14.57
2023-11-18T00:13:55.177Z,14.77
2023-11-18T00:16:23.572Z,13.35
2023-11-18T00:18:50.456Z,13.95
2023-11-18T00:21:17.963Z,12.63
2023-11-18T00:23:46.316Z,13.15
2023-11-18T00:26:14.331Z,17.60
2023-11-18T00:28:43.113Z,14.43
2023-11-18T00:31:09.992Z,14.18
2023-11-18T00:33:36.863Z,15.35
2023-11-18T00:36:04.469Z,14.68
2023-11-18T00:38:31.628Z,15.30
2023-11-18T00:40:58.497Z,13.60
2023-11-18T00:43:25.315Z,13.50
2023-11-18T00:45:53.684Z,13.18
2023-11-18T00:48:20.554Z,16.33
2023-11-18T00:50:47.498Z,13.82
2023-11-18T00:53:18.520Z,13.02
2023-11-18T00:55:45.507Z,19.42
2023-11-18T00:58:12.565Z,14.75
2023-11-18T01:00:39.415Z,16.10
2023-11-18T01:03:07.662Z,13.48
2023-11-18T01:05:35.732Z,14.50
2023-11-18T01:08:02.540Z,11.85
2023-11-18T01:10:30.617Z,15.35
2023-11-18T01:12:58.878Z,16.13
2023-11-18T01:15:25.678Z,13.15
2023-11-18T01:17:52.620Z,15.15
2023-11-18T01:20:23.680Z,14.82
2023-11-18T01:22:50.853Z,12.57
2023-11-18T01:25:20.480Z,16.90
2023-11-18T01:27:50.276Z,13.13
2023-11-18T01:30:17.138Z,13.27
2023-11-18T01:32:44.220Z,15.75
2023-11-18T01:35:14.103Z,15.05
2023-11-18T01:37:42.484Z,13.98
2023-11-18T01:40:10.216Z,14.82
2023-11-18T01:42:38.253Z,13.38
2023-11-18T01:45:06.681Z,13.57
2023-11-18T01:47:34.913Z,13.73
2023-11-18T01:50:03.545Z,14.10
2023-11-18T01:52:31.783Z,12.68
2023-11-18T01:55:01.176Z,15.52
2023-11-18T01:57:28.292Z,13.50
2023-11-18T01:59:55.745Z,13.40
2023-11-18T02:02:22.780Z,15.02
2023-11-18T02:04:50.582Z,13.95
2023-11-18T02:07:18.234Z,14.70
2023-11-18T02:09:46.891Z,12.98
2023-11-18T02:12:24.547Z,14.73
2023-11-18T02:14:52.932Z,14.27
2023-11-18T02:17:25.370Z,14.20
2023-11-18T02:19:53.357Z,12.07
2023-11-18T02:22:22.968Z,13.98
2023-11-18T02:24:50.146Z,12.60
2023-11-18T02:27:21.550Z,14.98
2023-11-18T02:29:50.243Z,13.95
2023-11-18T02:32:25.216Z,13.93
2023-11-18T02:34:59.764Z,14.70
2023-11-18T02:37:28.473Z,15.52
2023-11-18T02:40:05.373Z,13.90
2023-11-18T02:42:34.386Z,16.85
2023-11-18T02:45:01.942Z,15.23
2023-11-18T02:47:29.113Z,18.75
2023-11-18T02:50:07.251Z,16.58
2023-11-18T02:52:36.746Z,20.42
2023-11-18T02:55:04.122Z,15.30
2023-11-18T02:57:31.029Z,18.80
2023-11-18T03:00:01.288Z,18.00
2023-11-18T03:02:31.139Z,19.15
2023-11-18T03:04:58.094Z,16.65
2023-11-18T03:07:25.070Z,22.83
2023-11-18T03:09:51.813Z,17.70
2023-11-18T03:12:18.652Z,17.63
2023-11-18T03:14:45.924Z,19.48
2023-11-18T03:17:14.522Z,19.23
2023-11-18T03:19:43.003Z,18.42
2023-11-18T03:22:09.814Z,17.13
2023-11-18T03:24:36.543Z,21.45
2023-11-18T03:27:03.768Z,18.30
2023-11-18T03:29:30.557Z,19.15
2023-11-18T03:31:58.530Z,20.58
2023-11-18T03:34:26.779Z,16.73
2023-11-18T03:36:53.572Z,15.80
2023-11-18T03:39:20.365Z,17.67
2023-11-18T03:41:47.149Z,14.70
2023-11-18T03:44:14.082Z,16.25
2023-11-18T03:46:42.387Z,19.25
2023-11-18T03:49:09.218Z,18.83
2023-11-18T03:51:37.357Z,16.88
2023-11-18T03:54:05.128Z,20.92
2023-11-18T03:56:31.970Z,17.42
2023-11-18T03:58:58.827Z,13.95
2023-11-18T04:01:29.385Z,18.13
2023-11-18T04:03:56.582Z,23.33
2023-11-18T04:06:25.358Z,16.90
2023-11-18T04:08:53.826Z,18.77
2023-11-18T04:11:20.920Z,21.88
2023-11-18T04:13:47.705Z,19.75
2023-11-18T04:16:16.539Z,18.70
2023-11-18T04:18:45.170Z,19.70
2023-11-18T04:21:13.120Z,18.50
2023-11-18T04:23:41.171Z,19.10
2023-11-18T04:26:10.444Z,19.25
2023-11-18T04:28:37.879Z,18.83
2023-11-18T04:31:06.662Z,18.95
2023-11-18T04:33:34.587Z,17.85
2023-11-18T04:36:01.592Z,17.73
2023-11-18T04:38:28.520Z,16.55
2023-11-18T04:40:55.752Z,14.20
2023-11-18T04:43:34.495Z,16.17
2023-11-18T04:46:06.861Z,18.45
2023-11-18T04:48:34.534Z,17.85
2023-11-18T04:51:02.638Z,16.27
2023-11-18T04:53:29.430Z,14.75
2023-11-18T04:55:56.439Z,12.52
2023-11-18T04:58:25.232Z,19.13
2023-11-18T05:00:52.539Z,16.33
2023-11-18T05:03:19.539Z,18.45
2023-11-18T05:05:47.919Z,17.23
2023-11-18T05:08:20.213Z,17.88
2023-11-18T05:10:48.580Z,17.10
2023-11-18T05:13:17.647Z,16.05
2023-11-18T05:15:46.816Z,15.75
2023-11-18T05:18:16.320Z,18.35
2023-11-18T05:20:43.705Z,19.65
2023-11-18T05:23:13.530Z,18.98
2023-11-18T05:25:41.715Z,18.65
2023-11-18T05:28:09.854Z,17.13
2023-11-18T05:30:37.088Z,17.45
2023-11-18T05:33:08.597Z,19.40
2023-11-18T05:35:36.239Z,20.05
2023-11-18T05:38:07.547Z,18.27
2023-11-18T05:40:37.274Z,21.27
2023-11-18T05:43:07.526Z,20.02
2023-11-18T05:45:54.253Z,19.60
2023-11-18T05:48:23.181Z,18.00
2023-11-18T05:50:49.986Z,17.77
2023-11-18T05:53:16.956Z,14.60
2023-11-18T05:55:43.713Z,17.40
2023-11-18T05:58:11.216Z,19.85
2023-11-18T06:00:41.699Z,17.15
2023-11-18T06:03:09.069Z,20.45
2023-11-18T06:05:37.280Z,18.02
2023-11-18T06:08:05.597Z,14.30
2023-11-18T06:10:33.270Z,17.63
2023-11-18T06:13:00.230Z,21.02
2023-11-18T06:15:28.851Z,18.25
2023-11-18T06:17:57.209Z,17.75
2023-11-18T06:20:24.903Z,17.05
2023-11-18T06:22:53.100Z,20.05
2023-11-18T06:25:20.196Z,18.02
2023-11-18T06:27:47.065Z,18.88
2023-11-18T06:30:14.212Z,23.13
2023-11-18T06:32:42.126Z,20.65
2023-11-18T06:35:12.682Z,18.90
2023-11-18T06:37:39.494Z,16.20
2023-11-18T06:40:17.430Z,20.77
2023-11-18T06:42:48.383Z,19.77
2023-11-18T06:45:16.147Z,17.85
2023-11-18T06:47:46.724Z,21.63
2023-11-18T06:50:17.358Z,15.98
2023-11-18T06:52:47.275Z,17.30
2023-11-18T06:55:16.463Z,16.05
2023-11-18T06:57:45.519Z,15.55
2023-11-18T07:00:15.480Z,17.73
2023-11-18T07:02:42.358Z,17.50
2023-11-18T07:05:09.969Z,17.83
2023-11-18T07:07:38.537Z,12.43
2023-11-18T07:10:06.751Z,16.98
2023-11-18T07:12:35.431Z,15.02
2023-11-18T07:15:02.210Z,14.68
2023-11-18T07:17:29.060Z,14.30
2023-11-18T07:19:56.809Z,14.18
2023-11-18T07:22:23.667Z,13.27
2023-11-18T07:24:50.414Z,13.70
2023-11-18T07:27:17.366Z,12.75
2023-11-18T07:29:46.345Z,11.80
2023-11-18T07:32:13.176Z,12.45
2023-11-18T07:34:40.102Z,15.25
2023-11-18T07:37:06.866Z,13.52
2023-11-18T07:39:45.831Z,12.32
2023-11-18T07:42:13.404Z,14.07
2023-11-18T07:44:41.764Z,12.20
2023-11-18T07:47:10.059Z,13.90
2023-11-18T07:49:37.120Z,12.75
2023-11-18T07:52:04.494Z,14.63
2023-11-18T07:54:31.761Z,12.30
2023-11-18T07:56:59.150Z,11.02
2023-11-18T07:59:26.081Z,9.45
2023-11-18T08:01:54.676Z,11.65
2023-11-18T08:04:23.079Z,10.60
2023-11-18T08:06:50.592Z,11.10
2023-11-18T08:09:23.827Z,11.50
2023-11-18T08:11:50.710Z,13.45
2023-11-18T08:14:18.306Z,11.70
2023-11-18T08:16:45.441Z,10.43
2023-11-18T08:19:12.306Z,11.23
2023-11-18T08:21:40.538Z,13.00
2023-11-18T08:24:09.238Z,13.48
2023-11-18T08:26:36.313Z,13.27
2023-11-18T08:29:03.528Z,12.90
2023-11-18T08:31:30.371Z,12.98
2023-11-18T08:33:57.413Z,13.88
2023-11-18T08:36:27.636Z,12.52
2023-11-18T08:38:57.705Z,13.25
2023-11-18T08:41:24.741Z,15.05
2023-11-18T08:43:51.953Z,12.32
2023-11-18T08:46:20.154Z,12.98
2023-11-18T08:48:49.237Z,12.30
2023-11-18T08:51:17.722Z,10.43
2023-11-18T08:53:44.683Z,11.77
2023-11-18T08:56:15.501Z,9.48
2023-11-18T08:58:43.708Z,12.75
2023-11-18T09:01:16.554Z,13.10
2023-11-18T09:03:54.136Z,13.32
2023-11-18T09:06:30.384Z,11.30
2023-11-18T09:08:59.153Z,12.88
2023-11-18T09:11:30.486Z,14.80
2023-11-18T09:14:02.383Z,13.50
2023-11-18T09:16:34.312Z,16.25
2023-11-18T09:19:03.770Z,14.30
2023-11-18T09:21:31.258Z,13.40
2023-11-18T09:23:58.513Z,13.75
2023-11-18T09:26:39.322Z,13.30
2023-11-18T09:29:10.009Z,14.75
2023-11-18T09:31:38.794Z,13.90
2023-11-18T09:34:07.781Z,13.52
2023-11-18T09:36:35.172Z,11.55
2023-11-18T09:39:04.799Z,9.40
2023-11-18T09:41:33.495Z,12.88
2023-11-18T09:44:04.826Z,16.10
2023-11-18T09:46:41.935Z,11.95
2023-11-18T09:49:18.786Z,13.05
2023-11-18T09:51:49.684Z,15.52
2023-11-18T09:54:25.148Z,11.55
2023-11-18T09:57:09.544Z,9.32
2023-11-18T09:59:46.010Z,11.25
2023-11-18T10:02:15.098Z,13.70
2023-11-18T10:05:23.814Z,11.70
2023-11-18T10:07:52.347Z,11.43
2023-11-18T10:10:22.045Z,10.30
2023-11-18T10:12:59.428Z,10.70
2023-11-18T10:15:28.241Z,11.10
2023-11-18T10:17:58.732Z,10.63
2023-11-18T10:20:45.948Z,12.77
2023-11-18T10:23:15.739Z,12.45
2023-11-18T10:25:47.648Z,12.82
2023-11-18T10:30:49.882Z,11.35
2023-11-18T10:33:18.916Z,10.13
2023-11-18T10:35:52.498Z,8.00
2023-11-18T10:38:19.883Z,11.38
2023-11-18T10:40:47.838Z,10.63
2023-11-18T10:43:18.159Z,8.90
2023-11-18T10:45:48.134Z,10.98
2023-11-18T10:48:17.826Z,13.80
2023-11-18T10:50:51.191Z,11.07
2023-11-18T10:53:20.078Z,10.30
2023-11-18T10:55:47.292Z,12.57
2023-11-18T10:58:15.705Z,10.30
2023-11-18T11:00:50.355Z,9.57
2023-11-18T11:03:17.496Z,7.82
2023-11-18T11:05:45.130Z,6.95
2023-11-18T11:08:15.479Z,10.18
2023-11-18T11:10:42.992Z,9.60
2023-11-18T11:13:10.666Z,7.80
2023-11-18T11:15:51.700Z,8.32
2023-11-18T11:18:36.668Z,6.25
2023-11-18T11:21:17.177Z,9.60
2023-11-18T11:23:58.871Z,10.05
2023-11-18T11:26:40.170Z,6.70
2023-11-18T11:29:21.292Z,9.07
2023-11-18T11:31:58.601Z,7.57
2023-11-18T11:34:30.817Z,11.68
2023-11-18T11:39:31.359Z,7.90
2023-11-18T11:42:00.154Z,7.78
2023-11-18T11:44:32.142Z,9.07
2023-11-18T11:47:01.946Z,7.25
2023-11-18T11:49:38.300Z,7.97
2023-11-18T11:52:16.458Z,8.13
2023-11-18T11:54:51.175Z,8.30
2023-11-18T11:57:18.045Z,7.03
2023-11-18T11:59:58.743Z,7.53
2023-11-18T12:02:30.842Z,9.70
2023-11-18T12:05:00.562Z,8.27
2023-11-18T12:07:36.126Z,8.25
2023-11-18T12:10:08.824Z,7.35
2023-11-18T12:12:36.069Z,8.60
2023-11-18T12:15:26.344Z,9.25
2023-11-18T12:18:18.997Z,7.70
2023-11-18T12:20:56.875Z,8.57
2023-11-18T12:25:59.000Z,8.15
2023-11-18T12:28:37.080Z,7.65
2023-11-18T12:31:14.593Z,7.72
2023-11-18T12:34:03.794Z,7.85
2023-11-18T12:37:13.521Z,9.27
2023-11-18T12:40:25.507Z,6.60
2023-11-18T12:43:08.905Z,6.93
2023-11-18T12:46:15.984Z,7.43
2023-11-18T12:48:47.881Z,6.93
2023-11-18T12:53:50.198Z,6.28
2023-11-18T12:56:20.219Z,5.72
2023-11-18T12:58:48.761Z,6.88
2023-11-18T13:01:17.252Z,6.07
2023-11-18T13:03:45.427Z,10.35
2023-11-18T13:06:13.146Z,5.78
2023-11-18T13:08:40.978Z,6.35
2023-11-18T13:11:14.047Z,9.20
2023-11-18T13:13:41.870Z,6.15
2023-11-18T13:16:10.782Z,8.85
2023-11-18T13:18:45.368Z,5.35
2023-11-18T13:21:16.553Z,5.38
2023-11-18T13:23:46.604Z,4.80
2023-11-18T13:26:13.501Z,6.13
2023-11-18T13:28:40.557Z,4.68
2023-11-18T13:31:10.868Z,4.50
2023-11-18T13:33:40.653Z,6.15
2023-11-18T13:36:11.272Z,7.15
2023-11-18T13:38:38.717Z,6.28
2023-11-18T13:41:06.363Z,5.47
2023-11-18T13:43:43.211Z,4.75
2023-11-18T13:46:13.409Z,4.70
2023-11-18T13:48:41.999Z,3.80
2023-11-18T13:51:13.987Z,5.70
2023-11-18T13:53:42.076Z,5.25
2023-11-18T13:56:13.653Z,6.05
2023-11-18T13:58:41.165Z,5.15
2023-11-18T14:01:09.184Z,4.68
2023-11-18T14:03:38.188Z,5.32
2023-11-18T14:06:11.796Z,4.07
2023-11-18T14:08:39.283Z,4.32
2023-11-18T14:11:13.664Z,6.55
2023-11-18T14:13:43.673Z,3.78
2023-11-18T14:16:11.064Z,3.35
2023-11-18T14:18:38.030Z,5.65
2023-11-18T14:21:07.120Z,3.78
2023-11-18T14:23:35.428Z,4.78
2023-11-18T14:26:02.240Z,2.35
2023-11-18T14:28:32.236Z,2.63
2023-11-18T14:30:59.105Z,3.13
2023-11-18T14:33:26.088Z,4.68
2023-11-18T14:35:53.077Z,2.00
2023-11-18T14:38:22.284Z,3.35
2023-11-18T14:40:50.500Z,2.75
2023-11-18T14:43:18.106Z,2.70
2023-11-18T14:45:44.900Z,2.97
2023-11-18T14:48:12.168Z,1.90
2023-11-18T14:50:39.607Z,1.92
2023-11-18T14:53:07.143Z,3.60
2023-11-18T14:55:34.329Z,2.28
2023-11-18T14:58:02.663Z,2.25
2023-11-18T15:00:33.363Z,2.85
2023-11-18T15:03:02.286Z,2.85
2023-11-18T15:05:32.290Z,2.90
2023-11-18T15:08:02.272Z,2.30
2023-11-18T15:10:32.191Z,1.95
2023-11-18T15:13:04.683Z,2.97
2023-11-18T15:15:33.445Z,2.63
2023-11-18T15:18:07.456Z,1.55
2023-11-18T15:20:36.622Z,2.05
2023-11-18T15:23:04.199Z,2.20
2023-11-18T15:25:31.608Z,2.70
2023-11-18T15:27:59.933Z,2.25
2023-11-18T15:30:29.818Z,2.08
2023-11-18T15:32:58.999Z,1.63
2023-11-18T15:35:26.482Z,3.38
2023-11-18T15:37:55.825Z,1.23
2023-11-18T15:40:27.093Z,1.40
2023-11-18T15:42:55.119Z,2.33
2023-11-18T15:45:26.275Z,1.55
2023-11-18T15:47:56.760Z,1.90
2023-11-18T15:50:23.754Z,1.35
2023-11-18T15:52:55.059Z,1.73
2023-11-18T15:55:22.853Z,2.70
2023-11-18T15:57:54.427Z,1.50
2023-11-18T16:02:52.272Z,1.88
2023-11-18T16:05:27.758Z,2.10
2023-11-18T16:07:56.137Z,1.80
2023-11-18T16:10:24.603Z,2.03
2023-11-18T16:12:52.723Z,0.90
2023-11-18T16:15:20.896Z,1.85
2023-11-18T16:17:48.633Z,1.40
2023-11-18T16:20:18.512Z,2.65
2023-11-18T16:22:49.420Z,2.08
2023-11-18T16:25:19.321Z,1.55
2023-11-18T16:27:46.499Z,1.77
2023-11-18T16:30:14.085Z,1.48
2023-11-18T16:32:41.417Z,1.58
2023-11-18T16:35:17.484Z,1.50
2023-11-18T16:37:44.467Z,1.63
2023-11-18T16:40:17.637Z,1.30
2023-11-18T16:42:44.982Z,1.50
2023-11-18T16:45:12.473Z,1.75
2023-11-18T16:47:41.712Z,1.20
2023-11-18T16:50:09.504Z,1.40
2023-11-18T16:52:42.231Z,1.02
2023-11-18T16:55:10.268Z,1.02
2023-11-18T16:57:39.081Z,1.25
2023-11-18T17:00:16.858Z,1.60
2023-11-18T17:02:44.808Z,2.13
2023-11-18T17:05:11.732Z,1.30
2023-11-18T17:07:38.690Z,1.67
2023-11-18T17:10:12.482Z,1.65
2023-11-18T17:12:42.442Z,1.42
2023-11-18T17:15:14.405Z,2.00
2023-11-18T17:17:41.828Z,1.48
2023-11-18T17:20:15.876Z,1.33
2023-11-18T17:22:43.573Z,1.50
2023-11-18T17:25:14.459Z,1.50
2023-11-18T17:27:43.913Z,1.40
2023-11-18T17:30:17.417Z,1.10
2023-11-18T17:32:46.678Z,1.58
2023-11-18T17:35:17.126Z,1.58
2023-11-18T17:37:45.244Z,1.63
2023-11-18T17:40:12.906Z,2.33
2023-11-18T17:42:40.594Z,1.92
2023-11-18T17:45:10.325Z,1.67
2023-11-18T17:47:39.182Z,0.93
2023-11-18T17:50:10.114Z,1.85
2023-11-18T17:52:37.216Z,1.60
2023-11-18T17:55:04.954Z,1.50
2023-11-18T17:57:31.925Z,1.23
2023-11-18T17:59:58.841Z,1.05
2023-11-18T18:02:27.483Z,1.80
2023-11-18T18:04:54.337Z,1.90
2023-11-18T18:07:21.094Z,1.58
2023-11-18T18:09:47.807Z,1.70
2023-11-18T18:12:14.633Z,1.88
2023-11-18T18:14:41.469Z,2.47
2023-11-18T18:17:08.481Z,1.55
2023-11-18T18:19:38.149Z,3.08
2023-11-18T18:22:05.119Z,2.20
2023-11-18T18:24:34.370Z,2.28
2023-11-18T18:27:01.323Z,2.10
2023-11-18T18:29:28.684Z,1.65
2023-11-18T18:31:55.724Z,2.65
2023-11-18T18:34:22.457Z,1.77
2023-11-18T18:36:50.882Z,2.20
2023-11-18T18:39:47.929Z,2.13
2023-11-18T18:42:14.867Z,2.78
2023-11-18T18:44:42.078Z,2.33
2023-11-18T18:47:09.931Z,2.05
2023-11-18T18:49:37.659Z,2.85
2023-11-18T18:52:06.273Z,4.30
2023-11-18T18:54:38.259Z,2.45
2023-11-18T18:57:06.837Z,2.55
2023-11-18T18:59:33.687Z,1.77
2023-11-18T19:02:01.471Z,2.17
2023-11-18T19:04:28.280Z,2.13
2023-11-18T19:06:56.216Z,2.47
2023-11-18T19:09:24.721Z,2.72
2023-11-18T19:11:51.871Z,2.28
2023-11-18T19:14:21.405Z,2.55
2023-11-18T19:16:48.630Z,2.20
2023-11-18T19:19:18.385Z,2.58
2023-11-18T19:21:45.335Z,2.22
2023-11-18T19:24:15.652Z,2.70
2023-11-18T19:26:43.812Z,2.40
2023-11-18T19:29:10.682Z,1.88
2023-11-18T19:31:37.487Z,2.30
2023-11-18T19:34:04.648Z,2.53
2023-11-18T19:36:31.740Z,2.67
2023-11-18T19:38:58.563Z,2.83
2023-11-18T19:41:25.336Z,3.33
2023-11-18T19:43:54.313Z,2.63
2023-11-18T19:46:22.247Z,3.22
2023-11-18T19:48:49.026Z,2.80
2023-11-18T19:51:15.830Z,2.80
2023-11-18T19:53:42.574Z,3.22
2023-11-18T19:56:10.751Z,3.22
2023-11-18T19:58:37.627Z,3.25
2023-11-18T20:01:06.499Z,3.42
2023-11-18T20:03:41.770Z,3.13
2023-11-18T20:06:08.830Z,2.70
2023-11-18T20:08:35.774Z,3.38
2023-11-18T20:11:04.436Z,2.90
2023-11-18T20:13:31.882Z,2.60
2023-11-18T20:15:58.733Z,3.15
2023-11-18T20:18:26.964Z,3.58
2023-11-18T20:20:55.587Z,2.60
2023-11-18T20:23:24.101Z,2.53
2023-11-18T20:25:51.103Z,2.42
2023-11-18T20:28:17.862Z,2.75
2023-11-18T20:30:44.900Z,2.42
2023-11-18T20:33:13.336Z,2.35
2023-11-18T20:35:41.842Z,2.17
2023-11-18T20:38:08.801Z,2.95
2023-11-18T20:40:35.588Z,2.58
2023-11-18T20:43:04.061Z,5.60
2023-11-18T20:45:30.848Z,2.92
2023-11-18T20:47:57.898Z,4.13
2023-11-18T20:50:25.833Z,2.80
2023-11-18T20:52:54.126Z,2.95
2023-11-18T20:57:50.903Z,2.97
2023-11-18T21:00:18.488Z,3.03
2023-11-18T21:02:47.587Z,2.85
2023-11-18T21:05:15.201Z,3.70
2023-11-18T21:07:42.902Z,3.17
2023-11-18T21:10:17.367Z,3.65
2023-11-18T21:12:45.002Z,3.13
2023-11-18T21:15:13.548Z,3.40
2023-11-18T21:17:40.600Z,3.88
2023-11-18T21:20:13.906Z,3.83
2023-11-18T21:22:42.066Z,3.40
2023-11-18T21:25:12.679Z,3.83
2023-11-18T21:27:41.109Z,3.92
2023-11-18T21:30:12.061Z,4.03
2023-11-18T21:32:46.610Z,3.35
2023-11-18T21:35:15.996Z,3.70
2023-11-18T21:37:43.352Z,2.97
2023-11-18T21:40:14.414Z,3.70
2023-11-18T21:42:43.297Z,2.72
2023-11-18T21:45:31.363Z,3.33
2023-11-18T21:48:02.226Z,3.17
2023-11-18T21:50:29.411Z,3.60
2023-11-18T21:52:56.261Z,4.03
2023-11-18T21:55:23.218Z,4.70
2023-11-18T21:57:51.512Z,4.10
2023-11-18T22:00:19.013Z,5.13
2023-11-18T22:02:47.289Z,4.93
2023-11-18T22:05:14.760Z,4.28
2023-11-18T22:07:43.072Z,7.50
2023-11-18T22:10:16.624Z,4.93
2023-11-18T22:12:43.558Z,5.40
2023-11-18T22:15:17.344Z,6.05
2023-11-18T22:17:45.042Z,6.38
2023-11-18T22:20:13.525Z,6.18
2023-11-18T22:22:40.800Z,5.57
2023-11-18T22:25:09.213Z,6.38
2023-11-18T22:27:37.388Z,6.57
2023-11-18T22:30:05.141Z,7.95
2023-11-18T22:32:34.614Z,7.95
2023-11-18T22:35:02.017Z,7.82
2023-11-18T22:37:28.912Z,6.78
2023-11-18T22:39:58.050Z,7.38
2023-11-18T22:42:26.034Z,7.22
2023-11-18T22:44:52.939Z,7.95
2023-11-18T22:47:20.532Z,8.90
2023-11-18T22:49:48.701Z,8.27
2023-11-18T22:52:15.433Z,6.70
2023-11-18T22:54:42.470Z,10.45
2023-11-18T22:57:11.187Z,8.98
2023-11-18T22:59:38.105Z,8.82
2023-11-18T23:02:04.981Z,7.28
2023-11-18T23:04:31.807Z,7.28
2023-11-18T23:07:00.200Z,6.65
2023-11-18T23:09:27.803Z,7.65
2023-11-18T23:11:59.520Z,7.53
2023-11-18T23:14:26.357Z,10.15
2023-11-18T23:16:54.557Z,9.13
2023-11-18T23:19:21.743Z,8.18
2023-11-18T23:21:48.627Z,7.78
2023-11-18T23:24:16.876Z,8.35
2023-11-18T23:26:43.686Z,8.68
2023-11-18T23:29:10.772Z,6.45
2023-11-18T23:31:37.757Z,7.78
2023-11-18T23:34:05.535Z,5.90
2023-11-18T23:36:32.783Z,7.40
2023-11-18T23:39:03.952Z,10.55
2023-11-18T23:41:32.445Z,7.25
2023-11-18T23:43:59.797Z,8.18
2023-11-18T23:46:28.138Z,7.75
2023-11-18T23:48:55.276Z,7.30
2023-11-18T23:51:22.358Z,7.30
2023-11-18T23:53:49.098Z,7.40
2023-11-18T23:56:16.119Z,6.85
2023-11-18T23:58:44.209Z,6.97
